sensor_id;sensor_type;location;lat;lon;timestamp;P1;durP1;ratioP1;P2;durP2;ratioP2
65182;SDS011;51771;51.068;-1.780;2023-11-19T00:02:01;27.13;;;3.17;;
65182;SDS011;51771;51.068;-1.780;2023-11-19T00:04:27;22.83;;;2.70;;
65182;SDS011;51771;51.068;-1.780;2023-11-19T00:06:52;21.38;;;3.78;;
65182;SDS011;51771;51.068;-1.780;2023-11-19T00:09:17;32.73;;;4.50;;
65182;SDS011;51771;51.068;-1.780;2023-11-19T00:11:43;15.63;;;2.78;;
65182;SDS011;51771;51.068;-1.780;2023-11-19T00:14:09;21.05;;;4.32;;
65182;SDS011;51771;51.068;-1.780;2023-11-19T00:16:34;21.40;;;3.50;;
65182;SDS011;51771;51.068;-1.780;2023-11-19T00:19:00;22.47;;;3.33;;
65182;SDS011;51771;51.068;-1.780;2023-11-19T00:21:25;23.73;;;3.33;;
65182;SDS011;51771;51.068;-1.780;2023-11-19T00:23:53;19.17;;;3.10;;
65182;SDS011;51771;51.068;-1.780;2023-11-19T00:26:19;21.20;;;3.23;;
65182;SDS011;51771;51.068;-1.780;2023-11-19T00:28:44;21.02;;;3.03;;
65182;SDS011;51771;51.068;-1.780;2023-11-19T00:31:09;18.90;;;2.70;;
65182;SDS011;51771;51.068;-1.780;2023-11-19T00:33:35;23.07;;;3.30;;
65182;SDS011;51771;51.068;-1.780;2023-11-19T00:36:02;24.58;;;3.13;;
65182;SDS011;51771;51.068;-1.780;2023-11-19T00:38:27;21.63;;;3.95;;
65182;SDS011;51771;51.068;-1.780;2023-11-19T00:40:53;25.17;;;3.57;;
65182;SDS011;51771;51.068;-1.780;2023-11-19T00:43:18;37.23;;;3.77;;
65182;SDS011;51771;51.068;-1.780;2023-11-19T00:45:47;25.55;;;4.03;;
65182;SDS011;51771;51.068;-1.780;2023-11-19T00:48:15;22.10;;;3.35;;
65182;SDS011;51771;51.068;-1.780;2023-11-19T00:50:40;35.97;;;4.50;;
65182;SDS011;51771;51.068;-1.780;2023-11-19T00:53:09;23.35;;;3.70;;
65182;SDS011;51771;51.068;-1.780;2023-11-19T00:55:34;19.47;;;3.17;;
65182;SDS011;51771;51.068;-1.780;2023-11-19T00:57:59;22.03;;;3.40;;
65182;SDS011;51771;51.068;-1.780;2023-11-19T01:00:24;28.57;;;3.53;;
65182;SDS011;51771;51.068;-1.780;2023-11-19T01:02:52;23.25;;;4.70;;
65182;SDS011;51771;51.068;-1.780;2023-11-19T01:05:17;29.73;;;3.87;;
65182;SDS011;51771;51.068;-1.780;2023-11-19T01:07:46;25.10;;;4.63;;
65182;SDS011;51771;51.068;-1.780;2023-11-19T01:10:12;18.00;;;2.83;;
65182;SDS011;51771;51.068;-1.780;2023-11-19T01:12:37;20.05;;;3.38;;
65182;SDS011;51771;51.068;-1.780;2023-11-19T01:15:02;27.77;;;4.07;;
65182;SDS011;51771;51.068;-1.780;2023-11-19T01:17:28;23.73;;;3.88;;
65182;SDS011;51771;51.068;-1.780;2023-11-19T01:19:53;28.40;;;2.97;;
65182;SDS011;51771;51.068;-1.780;2023-11-19T01:22:18;20.27;;;3.33;;
65182;SDS011;51771;51.068;-1.780;2023-11-19T01:24:44;36.88;;;4.50;;
65182;SDS011;51771;51.068;-1.780;2023-11-19T01:27:09;33.40;;;3.55;;
65182;SDS011;51771;51.068;-1.780;2023-11-19T01:29:34;26.87;;;4.67;;
65182;SDS011;51771;51.068;-1.780;2023-11-19T01:31:59;18.70;;;3.97;;
65182;SDS011;51771;51.068;-1.780;2023-11-19T01:34:24;19.40;;;3.10;;
65182;SDS011;51771;51.068;-1.780;2023-11-19T01:36:50;28.77;;;3.63;;
65182;SDS011;51771;51.068;-1.780;2023-11-19T01:39:15;24.02;;;4.00;;
65182;SDS011;51771;51.068;-1.780;2023-11-19T01:41:44;23.55;;;4.07;;
65182;SDS011;51771;51.068;-1.780;2023-11-19T01:44:10;28.25;;;3.42;;
65182;SDS011;51771;51.068;-1.780;2023-11-19T01:46:37;19.92;;;3.33;;
65182;SDS011;51771;51.068;-1.780;2023-11-19T01:49:04;23.70;;;3.90;;
65182;SDS011;51771;51.068;-1.780;2023-11-19T01:51:30;19.17;;;3.00;;
65182;SDS011;51771;51.068;-1.780;2023-11-19T01:53:55;22.20;;;3.63;;
65182;SDS011;51771;51.068;-1.780;2023-11-19T01:56:22;28.58;;;3.08;;
65182;SDS011;51771;51.068;-1.780;2023-11-19T01:58:47;23.60;;;3.58;;
65182;SDS011;51771;51.068;-1.780;2023-11-19T02:01:13;21.50;;;3.42;;
65182;SDS011;51771;51.068;-1.780;2023-11-19T02:03:39;18.90;;;2.65;;
65182;SDS011;51771;51.068;-1.780;2023-11-19T02:06:05;26.70;;;4.03;;
65182;SDS011;51771;51.068;-1.780;2023-11-19T02:08:30;25.23;;;3.10;;
65182;SDS011;51771;51.068;-1.780;2023-11-19T02:10:55;23.55;;;2.90;;
65182;SDS011;51771;51.068;-1.780;2023-11-19T02:13:23;28.55;;;4.15;;
65182;SDS011;51771;51.068;-1.780;2023-11-19T02:15:49;19.30;;;2.95;;
65182;SDS011;51771;51.068;-1.780;2023-11-19T02:18:17;22.13;;;3.27;;
65182;SDS011;51771;51.068;-1.780;2023-11-19T02:20:42;34.10;;;5.22;;
65182;SDS011;51771;51.068;-1.780;2023-11-19T02:23:08;19.65;;;3.33;;
65182;SDS011;51771;51.068;-1.780;2023-11-19T02:25:33;24.47;;;4.40;;
65182;SDS011;51771;51.068;-1.780;2023-11-19T02:27:59;17.67;;;3.28;;
65182;SDS011;51771;51.068;-1.780;2023-11-19T02:30:25;31.38;;;3.63;;
65182;SDS011;51771;51.068;-1.780;2023-11-19T02:35:19;25.90;;;4.57;;
65182;SDS011;51771;51.068;-1.780;2023-11-19T02:37:46;29.42;;;3.95;;
65182;SDS011;51771;51.068;-1.780;2023-11-19T02:40:11;38.17;;;3.88;;
65182;SDS011;51771;51.068;-1.780;2023-11-19T02:42:38;19.45;;;3.15;;
65182;SDS011;51771;51.068;-1.780;2023-11-19T02:45:03;25.23;;;5.47;;
65182;SDS011;51771;51.068;-1.780;2023-11-19T02:47:31;24.42;;;3.40;;
65182;SDS011;51771;51.068;-1.780;2023-11-19T02:49:56;25.33;;;3.63;;
65182;SDS011;51771;51.068;-1.780;2023-11-19T02:52:22;20.83;;;3.42;;
65182;SDS011;51771;51.068;-1.780;2023-11-19T02:54:48;23.98;;;3.80;;
65182;SDS011;51771;51.068;-1.780;2023-11-19T02:57:13;30.05;;;3.97;;
65182;SDS011;51771;51.068;-1.780;2023-11-19T02:59:39;25.80;;;3.95;;
65182;SDS011;51771;51.068;-1.780;2023-11-19T03:02:06;19.05;;;2.72;;
65182;SDS011;51771;51.068;-1.780;2023-11-19T03:04:35;28.88;;;3.63;;
65182;SDS011;51771;51.068;-1.780;2023-11-19T03:07:00;34.00;;;5.03;;
65182;SDS011;51771;51.068;-1.780;2023-11-19T03:09:25;21.47;;;3.37;;
65182;SDS011;51771;51.068;-1.780;2023-11-19T03:11:50;15.55;;;3.47;;
65182;SDS011;51771;51.068;-1.780;2023-11-19T03:14:16;23.47;;;3.63;;
65182;SDS011;51771;51.068;-1.780;2023-11-19T03:16:44;15.05;;;3.50;;
65182;SDS011;51771;51.068;-1.780;2023-11-19T03:19:11;27.92;;;3.72;;
65182;SDS011;51771;51.068;-1.780;2023-11-19T03:21:36;23.27;;;4.03;;
65182;SDS011;51771;51.068;-1.780;2023-11-19T03:24:01;22.08;;;4.22;;
65182;SDS011;51771;51.068;-1.780;2023-11-19T03:26:27;20.38;;;2.97;;
65182;SDS011;51771;51.068;-1.780;2023-11-19T03:28:52;21.33;;;3.13;;
65182;SDS011;51771;51.068;-1.780;2023-11-19T03:31:17;29.77;;;4.05;;
65182;SDS011;51771;51.068;-1.780;2023-11-19T03:33:43;30.63;;;4.17;;
65182;SDS011;51771;51.068;-1.780;2023-11-19T03:36:08;25.20;;;3.83;;
65182;SDS011;51771;51.068;-1.780;2023-11-19T03:38:34;23.13;;;4.20;;
65182;SDS011;51771;51.068;-1.780;2023-11-19T03:40:59;20.60;;;4.32;;
65182;SDS011;51771;51.068;-1.780;2023-11-19T03:43:24;18.65;;;3.70;;
65182;SDS011;51771;51.068;-1.780;2023-11-19T03:45:50;28.53;;;2.87;;
65182;SDS011;51771;51.068;-1.780;2023-11-19T03:48:15;30.47;;;4.17;;
65182;SDS011;51771;51.068;-1.780;2023-11-19T03:50:43;22.45;;;3.38;;
65182;SDS011;51771;51.068;-1.780;2023-11-19T03:53:11;18.73;;;2.72;;
65182;SDS011;51771;51.068;-1.780;2023-11-19T03:55:36;18.90;;;2.72;;
65182;SDS011;51771;51.068;-1.780;2023-11-19T03:58:01;14.17;;;3.13;;
65182;SDS011;51771;51.068;-1.780;2023-11-19T04:00:26;18.00;;;2.30;;
65182;SDS011;51771;51.068;-1.780;2023-11-19T04:02:52;23.38;;;3.03;;
65182;SDS011;51771;51.068;-1.780;2023-11-19T04:05:18;23.45;;;3.15;;
65182;SDS011;51771;51.068;-1.780;2023-11-19T04:07:43;15.13;;;3.17;;
65182;SDS011;51771;51.068;-1.780;2023-11-19T04:10:09;13.90;;;2.92;;
65182;SDS011;51771;51.068;-1.780;2023-11-19T04:12:34;26.92;;;3.53;;
65182;SDS011;51771;51.068;-1.780;2023-11-19T04:15:00;14.00;;;2.60;;
65182;SDS011;51771;51.068;-1.780;2023-11-19T04:17:25;20.75;;;4.22;;
65182;SDS011;51771;51.068;-1.780;2023-11-19T04:19:50;20.33;;;3.00;;
65182;SDS011;51771;51.068;-1.780;2023-11-19T04:22:15;24.30;;;2.53;;
65182;SDS011;51771;51.068;-1.780;2023-11-19T04:24:41;34.83;;;3.55;;
65182;SDS011;51771;51.068;-1.780;2023-11-19T04:27:08;15.10;;;2.72;;
65182;SDS011;51771;51.068;-1.780;2023-11-19T04:29:33;16.10;;;3.50;;
65182;SDS011;51771;51.068;-1.780;2023-11-19T04:31:59;22.63;;;3.75;;
65182;SDS011;51771;51.068;-1.780;2023-11-19T04:34:26;19.17;;;3.30;;
65182;SDS011;51771;51.068;-1.780;2023-11-19T04:36:51;18.50;;;3.50;;
65182;SDS011;51771;51.068;-1.780;2023-11-19T04:39:16;21.73;;;2.70;;
65182;SDS011;51771;51.068;-1.780;2023-11-19T04:41:49;22.35;;;3.83;;
65182;SDS011;51771;51.068;-1.780;2023-11-19T04:44:15;28.52;;;4.10;;
65182;SDS011;51771;51.068;-1.780;2023-11-19T04:46:41;22.20;;;3.13;;
65182;SDS011;51771;51.068;-1.780;2023-11-19T04:49:06;22.15;;;2.83;;
65182;SDS011;51771;51.068;-1.780;2023-11-19T04:51:31;20.87;;;2.97;;
65182;SDS011;51771;51.068;-1.780;2023-11-19T04:53:56;21.47;;;2.67;;
65182;SDS011;51771;51.068;-1.780;2023-11-19T04:56:21;18.90;;;3.00;;
65182;SDS011;51771;51.068;-1.780;2023-11-19T04:58:48;20.50;;;3.30;;
65182;SDS011;51771;51.068;-1.780;2023-11-19T05:01:13;24.63;;;3.20;;
65182;SDS011;51771;51.068;-1.780;2023-11-19T05:03:40;31.38;;;3.95;;
65182;SDS011;51771;51.068;-1.780;2023-11-19T05:06:06;15.32;;;2.88;;
65182;SDS011;51771;51.068;-1.780;2023-11-19T05:08:31;20.88;;;2.78;;
65182;SDS011;51771;51.068;-1.780;2023-11-19T05:10:57;23.13;;;2.90;;
65182;SDS011;51771;51.068;-1.780;2023-11-19T05:13:22;17.67;;;2.65;;
65182;SDS011;51771;51.068;-1.780;2023-11-19T05:15:47;19.93;;;3.33;;
65182;SDS011;51771;51.068;-1.780;2023-11-19T05:18:13;22.73;;;3.43;;
65182;SDS011;51771;51.068;-1.780;2023-11-19T05:20:38;15.43;;;2.53;;
65182;SDS011;51771;51.068;-1.780;2023-11-19T05:23:03;15.00;;;2.37;;
65182;SDS011;51771;51.068;-1.780;2023-11-19T05:25:28;11.33;;;2.37;;
65182;SDS011;51771;51.068;-1.780;2023-11-19T05:27:53;14.03;;;2.83;;
65182;SDS011;51771;51.068;-1.780;2023-11-19T05:30:19;14.57;;;3.05;;
65182;SDS011;51771;51.068;-1.780;2023-11-19T05:32:44;20.30;;;3.03;;
65182;SDS011;51771;51.068;-1.780;2023-11-19T05:35:09;15.80;;;2.17;;
65182;SDS011;51771;51.068;-1.780;2023-11-19T05:37:34;15.15;;;2.47;;
65182;SDS011;51771;51.068;-1.780;2023-11-19T05:40:00;9.68;;;2.22;;
65182;SDS011;51771;51.068;-1.780;2023-11-19T05:42:28;20.67;;;2.28;;
65182;SDS011;51771;51.068;-1.780;2023-11-19T05:44:53;12.70;;;2.27;;
65182;SDS011;51771;51.068;-1.780;2023-11-19T05:47:18;22.90;;;2.80;;
65182;SDS011;51771;51.068;-1.780;2023-11-19T05:49:43;12.80;;;2.43;;
65182;SDS011;51771;51.068;-1.780;2023-11-19T05:52:08;19.60;;;3.33;;
65182;SDS011;51771;51.068;-1.780;2023-11-19T05:54:35;15.23;;;2.40;;
65182;SDS011;51771;51.068;-1.780;2023-11-19T05:57:04;12.98;;;1.85;;
65182;SDS011;51771;51.068;-1.780;2023-11-19T05:59:29;9.00;;;2.22;;
65182;SDS011;51771;51.068;-1.780;2023-11-19T06:01:54;8.98;;;2.33;;
65182;SDS011;51771;51.068;-1.780;2023-11-19T06:04:20;19.07;;;3.13;;
65182;SDS011;51771;51.068;-1.780;2023-11-19T06:06:45;12.00;;;2.28;;
65182;SDS011;51771;51.068;-1.780;2023-11-19T06:09:11;7.60;;;1.73;;
65182;SDS011;51771;51.068;-1.780;2023-11-19T06:11:37;10.73;;;1.80;;
65182;SDS011;51771;51.068;-1.780;2023-11-19T06:14:03;16.67;;;3.25;;
65182;SDS011;51771;51.068;-1.780;2023-11-19T06:16:30;16.73;;;3.13;;
65182;SDS011;51771;51.068;-1.780;2023-11-19T06:18:55;13.27;;;2.43;;
65182;SDS011;51771;51.068;-1.780;2023-11-19T06:21:20;15.05;;;1.70;;
65182;SDS011;51771;51.068;-1.780;2023-11-19T06:23:46;11.68;;;2.70;;
65182;SDS011;51771;51.068;-1.780;2023-11-19T06:26:11;11.05;;;1.77;;
65182;SDS011;51771;51.068;-1.780;2023-11-19T06:28:36;11.65;;;2.15;;
65182;SDS011;51771;51.068;-1.780;2023-11-19T06:31:01;14.20;;;2.38;;
65182;SDS011;51771;51.068;-1.780;2023-11-19T06:33:28;23.88;;;3.38;;
65182;SDS011;51771;51.068;-1.780;2023-11-19T06:35:53;15.37;;;2.37;;
65182;SDS011;51771;51.068;-1.780;2023-11-19T06:38:19;13.82;;;2.83;;
65182;SDS011;51771;51.068;-1.780;2023-11-19T06:40:44;17.83;;;2.70;;
65182;SDS011;51771;51.068;-1.780;2023-11-19T06:43:10;17.25;;;2.38;;
65182;SDS011;51771;51.068;-1.780;2023-11-19T06:45:35;13.52;;;1.85;;
65182;SDS011;51771;51.068;-1.780;2023-11-19T06:48:02;15.13;;;2.38;;
65182;SDS011;51771;51.068;-1.780;2023-11-19T06:50:28;14.82;;;1.95;;
65182;SDS011;51771;51.068;-1.780;2023-11-19T06:52:54;13.63;;;2.17;;
65182;SDS011;51771;51.068;-1.780;2023-11-19T06:55:19;14.18;;;2.17;;
65182;SDS011;51771;51.068;-1.780;2023-11-19T06:57:45;16.90;;;3.28;;
65182;SDS011;51771;51.068;-1.780;2023-11-19T07:00:10;7.27;;;1.40;;
65182;SDS011;51771;51.068;-1.780;2023-11-19T07:02:36;16.38;;;1.67;;
65182;SDS011;51771;51.068;-1.780;2023-11-19T07:05:01;9.30;;;2.30;;
65182;SDS011;51771;51.068;-1.780;2023-11-19T07:07:29;12.07;;;1.88;;
65182;SDS011;51771;51.068;-1.780;2023-11-19T07:09:55;10.18;;;1.58;;
65182;SDS011;51771;51.068;-1.780;2023-11-19T07:12:20;8.43;;;2.35;;
65182;SDS011;51771;51.068;-1.780;2023-11-19T07:14:45;16.33;;;2.20;;
65182;SDS011;51771;51.068;-1.780;2023-11-19T07:17:11;14.27;;;2.20;;
65182;SDS011;51771;51.068;-1.780;2023-11-19T07:19:36;20.07;;;1.83;;
65182;SDS011;51771;51.068;-1.780;2023-11-19T07:22:03;17.85;;;2.03;;
65182;SDS011;51771;51.068;-1.780;2023-11-19T07:24:28;15.25;;;1.77;;
65182;SDS011;51771;51.068;-1.780;2023-11-19T07:26:53;7.23;;;1.13;;
65182;SDS011;51771;51.068;-1.780;2023-11-19T07:29:19;13.00;;;2.10;;
65182;SDS011;51771;51.068;-1.780;2023-11-19T07:31:44;17.25;;;2.30;;
65182;SDS011;51771;51.068;-1.780;2023-11-19T07:34:10;16.80;;;2.17;;
65182;SDS011;51771;51.068;-1.780;2023-11-19T07:36:36;10.43;;;1.70;;
65182;SDS011;51771;51.068;-1.780;2023-11-19T07:39:01;12.07;;;2.43;;
65182;SDS011;51771;51.068;-1.780;2023-11-19T07:41:27;14.10;;;3.67;;
65182;SDS011;51771;51.068;-1.780;2023-11-19T07:43:52;12.68;;;1.98;;
65182;SDS011;51771;51.068;-1.780;2023-11-19T07:46:18;14.68;;;1.98;;
65182;SDS011;51771;51.068;-1.780;2023-11-19T07:48:44;16.48;;;2.67;;
65182;SDS011;51771;51.068;-1.780;2023-11-19T07:51:12;13.95;;;1.77;;
65182;SDS011;51771;51.068;-1.780;2023-11-19T07:53:37;14.35;;;2.35;;
65182;SDS011;51771;51.068;-1.780;2023-11-19T07:56:03;19.65;;;3.00;;
65182;SDS011;51771;51.068;-1.780;2023-11-19T07:58:28;14.65;;;2.30;;
65182;SDS011;51771;51.068;-1.780;2023-11-19T08:00:54;10.80;;;1.63;;
65182;SDS011;51771;51.068;-1.780;2023-11-19T08:03:19;24.47;;;3.37;;
65182;SDS011;51771;51.068;-1.780;2023-11-19T08:05:44;14.57;;;3.30;;
65182;SDS011;51771;51.068;-1.780;2023-11-19T08:08:09;19.27;;;2.53;;
65182;SDS011;51771;51.068;-1.780;2023-11-19T08:10:35;17.97;;;2.10;;
65182;SDS011;51771;51.068;-1.780;2023-11-19T08:13:00;18.92;;;2.60;;
65182;SDS011;51771;51.068;-1.780;2023-11-19T08:15:25;15.32;;;3.00;;
65182;SDS011;51771;51.068;-1.780;2023-11-19T08:17:50;14.03;;;2.27;;
65182;SDS011;51771;51.068;-1.780;2023-11-19T08:20:16;18.73;;;3.45;;
65182;SDS011;51771;51.068;-1.780;2023-11-19T08:22:41;16.70;;;2.13;;
65182;SDS011;51771;51.068;-1.780;2023-11-19T08:25:06;21.20;;;2.67;;
65182;SDS011;51771;51.068;-1.780;2023-11-19T08:27:32;22.38;;;2.50;;
65182;SDS011;51771;51.068;-1.780;2023-11-19T08:29:58;21.80;;;3.03;;
65182;SDS011;51771;51.068;-1.780;2023-11-19T08:32:26;15.65;;;2.55;;
65182;SDS011;51771;51.068;-1.780;2023-11-19T08:34:52;9.73;;;2.75;;
65182;SDS011;51771;51.068;-1.780;2023-11-19T08:37:17;15.80;;;2.30;;
65182;SDS011;51771;51.068;-1.780;2023-11-19T08:39:47;14.80;;;2.50;;
65182;SDS011;51771;51.068;-1.780;2023-11-19T08:42:12;10.52;;;2.10;;
65182;SDS011;51771;51.068;-1.780;2023-11-19T08:44:38;14.85;;;2.90;;
65182;SDS011;51771;51.068;-1.780;2023-11-19T08:47:03;16.60;;;2.60;;
65182;SDS011;51771;51.068;-1.780;2023-11-19T08:49:29;13.40;;;1.73;;
65182;SDS011;51771;51.068;-1.780;2023-11-19T08:51:54;14.38;;;2.55;;
65182;SDS011;51771;51.068;-1.780;2023-11-19T08:54:19;15.77;;;2.80;;
65182;SDS011;51771;51.068;-1.780;2023-11-19T08:56:46;20.20;;;3.10;;
65182;SDS011;51771;51.068;-1.780;2023-11-19T08:59:11;11.17;;;2.00;;
65182;SDS011;51771;51.068;-1.780;2023-11-19T09:01:36;17.53;;;1.93;;
65182;SDS011;51771;51.068;-1.780;2023-11-19T09:04:01;23.43;;;3.10;;
65182;SDS011;51771;51.068;-1.780;2023-11-19T09:06:27;14.85;;;1.80;;
65182;SDS011;51771;51.068;-1.780;2023-11-19T09:08:52;13.95;;;2.10;;
65182;SDS011;51771;51.068;-1.780;2023-11-19T09:11:17;13.52;;;2.50;;
65182;SDS011;51771;51.068;-1.780;2023-11-19T09:13:43;15.30;;;2.50;;
65182;SDS011;51771;51.068;-1.780;2023-11-19T09:16:11;17.98;;;2.10;;
65182;SDS011;51771;51.068;-1.780;2023-11-19T09:18:36;9.32;;;2.10;;
65182;SDS011;51771;51.068;-1.780;2023-11-19T09:21:01;13.90;;;2.20;;
65182;SDS011;51771;51.068;-1.780;2023-11-19T09:23:27;10.23;;;2.00;;
65182;SDS011;51771;51.068;-1.780;2023-11-19T09:25:55;19.63;;;2.97;;
65182;SDS011;51771;51.068;-1.780;2023-11-19T09:28:20;7.82;;;1.95;;
65182;SDS011;51771;51.068;-1.780;2023-11-19T09:30:45;9.33;;;1.97;;
65182;SDS011;51771;51.068;-1.780;2023-11-19T09:33:11;18.00;;;2.37;;
65182;SDS011;51771;51.068;-1.780;2023-11-19T09:35:36;11.73;;;2.00;;
65182;SDS011;51771;51.068;-1.780;2023-11-19T09:38:01;14.87;;;2.20;;
65182;SDS011;51771;51.068;-1.780;2023-11-19T09:40:27;11.20;;;1.73;;
65182;SDS011;51771;51.068;-1.780;2023-11-19T09:42:53;11.90;;;2.78;;
65182;SDS011;51771;51.068;-1.780;2023-11-19T09:45:19;16.70;;;2.67;;
65182;SDS011;51771;51.068;-1.780;2023-11-19T09:47:45;13.48;;;2.22;;
65182;SDS011;51771;51.068;-1.780;2023-11-19T09:50:14;9.30;;;1.98;;
65182;SDS011;51771;51.068;-1.780;2023-11-19T09:55:04;12.27;;;2.13;;
65182;SDS011;51771;51.068;-1.780;2023-11-19T09:57:29;12.83;;;2.10;;
65182;SDS011;51771;51.068;-1.780;2023-11-19T09:59:55;22.67;;;3.72;;
65182;SDS011;51771;51.068;-1.780;2023-11-19T10:02:21;21.00;;;2.72;;
65182;SDS011;51771;51.068;-1.780;2023-11-19T10:04:46;13.70;;;2.15;;
65182;SDS011;51771;51.068;-1.780;2023-11-19T10:07:13;15.15;;;2.50;;
65182;SDS011;51771;51.068;-1.780;2023-11-19T10:09:38;11.93;;;2.25;;
65182;SDS011;51771;51.068;-1.780;2023-11-19T10:12:03;15.57;;;2.50;;
65182;SDS011;51771;51.068;-1.780;2023-11-19T10:14:29;18.20;;;2.67;;
65182;SDS011;51771;51.068;-1.780;2023-11-19T10:16:55;13.50;;;1.73;;
65182;SDS011;51771;51.068;-1.780;2023-11-19T10:19:21;15.65;;;2.78;;
65182;SDS011;51771;51.068;-1.780;2023-11-19T10:21:46;18.95;;;2.67;;
65182;SDS011;51771;51.068;-1.780;2023-11-19T10:24:11;19.52;;;3.05;;
65182;SDS011;51771;51.068;-1.780;2023-11-19T10:26:37;9.83;;;2.53;;
65182;SDS011;51771;51.068;-1.780;2023-11-19T10:29:02;15.10;;;2.75;;
65182;SDS011;51771;51.068;-1.780;2023-11-19T10:31:27;15.85;;;2.50;;
65182;SDS011;51771;51.068;-1.780;2023-11-19T10:33:52;15.00;;;2.27;;
65182;SDS011;51771;51.068;-1.780;2023-11-19T10:36:18;15.18;;;2.45;;
65182;SDS011;51771;51.068;-1.780;2023-11-19T10:38:54;14.88;;;2.45;;
65182;SDS011;51771;51.068;-1.780;2023-11-19T10:41:26;14.18;;;2.45;;
65182;SDS011;51771;51.068;-1.780;2023-11-19T10:43:51;12.23;;;2.17;;
65182;SDS011;51771;51.068;-1.780;2023-11-19T10:46:16;11.07;;;2.43;;
65182;SDS011;51771;51.068;-1.780;2023-11-19T10:48:46;9.57;;;1.48;;
65182;SDS011;51771;51.068;-1.780;2023-11-19T10:51:11;13.47;;;1.63;;
65182;SDS011;51771;51.068;-1.780;2023-11-19T10:53:39;9.13;;;1.80;;
65182;SDS011;51771;51.068;-1.780;2023-11-19T10:56:10;17.10;;;2.70;;
65182;SDS011;51771;51.068;-1.780;2023-11-19T10:58:36;10.25;;;1.73;;
65182;SDS011;51771;51.068;-1.780;2023-11-19T11:01:06;11.05;;;1.23;;
65182;SDS011;51771;51.068;-1.780;2023-11-19T11:03:35;13.55;;;1.85;;
65182;SDS011;51771;51.068;-1.780;2023-11-19T11:06:02;12.73;;;1.52;;
65182;SDS011;51771;51.068;-1.780;2023-11-19T11:08:28;7.60;;;1.50;;
65182;SDS011;51771;51.068;-1.780;2023-11-19T11:10:55;8.38;;;1.52;;
65182;SDS011;51771;51.068;-1.780;2023-11-19T11:13:24;10.23;;;2.25;;
65182;SDS011;51771;51.068;-1.780;2023-11-19T11:15:50;10.40;;;1.77;;
65182;SDS011;51771;51.068;-1.780;2023-11-19T11:18:16;11.00;;;1.67;;
65182;SDS011;51771;51.068;-1.780;2023-11-19T11:20:44;11.23;;;1.73;;
65182;SDS011;51771;51.068;-1.780;2023-11-19T11:23:24;12.93;;;1.77;;
65182;SDS011;51771;51.068;-1.780;2023-11-19T11:36:44;12.60;;;1.80;;
65182;SDS011;51771;51.068;-1.780;2023-11-19T11:39:12;5.45;;;1.30;;
65182;SDS011;51771;51.068;-1.780;2023-11-19T11:41:38;6.35;;;1.40;;
65182;SDS011;51771;51.068;-1.780;2023-11-19T11:44:03;11.43;;;2.00;;
65182;SDS011;51771;51.068;-1.780;2023-11-19T11:51:43;5.88;;;1.33;;
65182;SDS011;51771;51.068;-1.780;2023-11-19T11:54:07;11.07;;;2.40;;
65182;SDS011;51771;51.068;-1.780;2023-11-19T11:56:33;12.35;;;2.38;;
65182;SDS011;51771;51.068;-1.780;2023-11-19T11:58:59;4.78;;;1.10;;
65182;SDS011;51771;51.068;-1.780;2023-11-19T12:01:25;11.32;;;1.67;;
65182;SDS011;51771;51.068;-1.780;2023-11-19T12:03:55;13.07;;;2.60;;
65182;SDS011;51771;51.068;-1.780;2023-11-19T12:06:21;12.15;;;2.25;;
65182;SDS011;51771;51.068;-1.780;2023-11-19T12:08:46;8.82;;;1.40;;
65182;SDS011;51771;51.068;-1.780;2023-11-19T12:11:11;9.03;;;1.63;;
65182;SDS011;51771;51.068;-1.780;2023-11-19T12:13:46;10.02;;;1.75;;
65182;SDS011;51771;51.068;-1.780;2023-11-19T12:16:12;10.23;;;1.60;;
65182;SDS011;51771;51.068;-1.780;2023-11-19T12:18:38;7.72;;;1.25;;
65182;SDS011;51771;51.068;-1.780;2023-11-19T12:21:03;11.52;;;2.17;;
65182;SDS011;51771;51.068;-1.780;2023-11-19T12:23:31;5.78;;;1.45;;
65182;SDS011;51771;51.068;-1.780;2023-11-19T12:25:57;8.02;;;1.23;;
65182;SDS011;51771;51.068;-1.780;2023-11-19T12:28:22;13.43;;;1.98;;
65182;SDS011;51771;51.068;-1.780;2023-11-19T12:30:49;9.90;;;1.60;;
65182;SDS011;51771;51.068;-1.780;2023-11-19T12:33:14;8.77;;;1.27;;
65182;SDS011;51771;51.068;-1.780;2023-11-19T12:35:41;12.15;;;1.45;;
65182;SDS011;51771;51.068;-1.780;2023-11-19T12:38:07;10.55;;;2.05;;
65182;SDS011;51771;51.068;-1.780;2023-11-19T12:40:33;7.93;;;1.30;;
65182;SDS011;51771;51.068;-1.780;2023-11-19T12:42:58;6.20;;;1.33;;
65182;SDS011;51771;51.068;-1.780;2023-11-19T12:45:25;9.90;;;2.33;;
65182;SDS011;51771;51.068;-1.780;2023-11-19T12:48:05;7.88;;;2.17;;
65182;SDS011;51771;51.068;-1.780;2023-11-19T12:50:49;6.72;;;1.10;;
65182;SDS011;51771;51.068;-1.780;2023-11-19T12:53:15;9.23;;;1.52;;
65182;SDS011;51771;51.068;-1.780;2023-11-19T12:55:40;11.10;;;1.40;;
65182;SDS011;51771;51.068;-1.780;2023-11-19T12:58:05;6.00;;;1.47;;
65182;SDS011;51771;51.068;-1.780;2023-11-19T13:00:31;10.40;;;1.53;;
65182;SDS011;51771;51.068;-1.780;2023-11-19T13:02:56;7.07;;;1.17;;
65182;SDS011;51771;51.068;-1.780;2023-11-19T13:08:05;7.28;;;1.05;;
65182;SDS011;51771;51.068;-1.780;2023-11-19T13:10:34;3.00;;;0.70;;
65182;SDS011;51771;51.068;-1.780;2023-11-19T13:13:14;2.03;;;0.60;;
65182;SDS011;51771;51.068;-1.780;2023-11-19T13:15:40;5.50;;;0.93;;
65182;SDS011;51771;51.068;-1.780;2023-11-19T13:18:05;5.25;;;1.13;;
65182;SDS011;51771;51.068;-1.780;2023-11-19T13:20:31;3.78;;;0.73;;
65182;SDS011;51771;51.068;-1.780;2023-11-19T13:23:01;4.80;;;0.88;;
65182;SDS011;51771;51.068;-1.780;2023-11-19T13:25:27;3.50;;;0.70;;
65182;SDS011;51771;51.068;-1.780;2023-11-19T13:27:52;4.00;;;0.88;;
65182;SDS011;51771;51.068;-1.780;2023-11-19T13:30:18;3.72;;;1.02;;
65182;SDS011;51771;51.068;-1.780;2023-11-19T13:32:43;1.60;;;0.70;;
65182;SDS011;51771;51.068;-1.780;2023-11-19T13:35:10;4.10;;;0.60;;
65182;SDS011;51771;51.068;-1.780;2023-11-19T13:37:36;6.40;;;1.10;;
65182;SDS011;51771;51.068;-1.780;2023-11-19T13:40:01;2.67;;;0.33;;
65182;SDS011;51771;51.068;-1.780;2023-11-19T13:42:26;2.17;;;0.60;;
65182;SDS011;51771;51.068;-1.780;2023-11-19T13:44:52;1.42;;;0.50;;
65182;SDS011;51771;51.068;-1.780;2023-11-19T13:47:17;2.40;;;0.50;;
65182;SDS011;51771;51.068;-1.780;2023-11-19T13:49:44;0.83;;;0.27;;
65182;SDS011;51771;51.068;-1.780;2023-11-19T13:52:09;3.65;;;0.73;;
65182;SDS011;51771;51.068;-1.780;2023-11-19T13:54:34;1.23;;;0.60;;
65182;SDS011;51771;51.068;-1.780;2023-11-19T13:57:01;1.83;;;0.75;;
65182;SDS011;51771;51.068;-1.780;2023-11-19T13:59:29;3.05;;;0.77;;
65182;SDS011;51771;51.068;-1.780;2023-11-19T14:01:54;4.65;;;0.68;;
65182;SDS011;51771;51.068;-1.780;2023-11-19T14:04:19;5.40;;;0.50;;
65182;SDS011;51771;51.068;-1.780;2023-11-19T14:06:45;2.70;;;0.90;;
65182;SDS011;51771;51.068;-1.780;2023-11-19T14:09:10;1.13;;;0.35;;
65182;SDS011;51771;51.068;-1.780;2023-11-19T14:11:35;2.00;;;0.50;;
65182;SDS011;51771;51.068;-1.780;2023-11-19T14:14:00;1.52;;;0.30;;
65182;SDS011;51771;51.068;-1.780;2023-11-19T14:16:26;6.37;;;0.90;;
65182;SDS011;51771;51.068;-1.780;2023-11-19T14:18:51;0.77;;;0.40;;
65182;SDS011;51771;51.068;-1.780;2023-11-19T14:21:16;1.20;;;0.33;;
65182;SDS011;51771;51.068;-1.780;2023-11-19T14:23:42;3.83;;;0.57;;
65182;SDS011;51771;51.068;-1.780;2023-11-19T14:26:07;1.98;;;0.40;;
65182;SDS011;51771;51.068;-1.780;2023-11-19T14:28:32;4.83;;;0.70;;
65182;SDS011;51771;51.068;-1.780;2023-11-19T14:30:57;4.45;;;0.75;;
65182;SDS011;51771;51.068;-1.780;2023-11-19T14:33:22;4.33;;;1.07;;
65182;SDS011;51771;51.068;-1.780;2023-11-19T14:35:48;3.20;;;0.70;;
65182;SDS011;51771;51.068;-1.780;2023-11-19T14:38:13;6.35;;;0.98;;
65182;SDS011;51771;51.068;-1.780;2023-11-19T14:40:39;1.97;;;0.63;;